createdAt,value
2024-01-17T00:00:50.394Z,99033.14
2024-01-17T00:03:42.578Z,99027.92
2024-01-17T00:06:14.888Z,99025.56
2024-01-17T00:08:47.154Z,99025.23
2024-01-17T00:11:19.355Z,99020.22
2024-01-17T00:13:51.537Z,99019.05
2024-01-17T00:16:26.931Z,99022.20
2024-01-17T00:18:59.317Z,99025.63
2024-01-17T00:21:32.203Z,99020.80
2024-01-17T00:24:04.622Z,99019.36
2024-01-17T00:26:36.956Z,99020.09
2024-01-17T00:29:09.145Z,99013.81
2024-01-17T00:31:41.386Z,99011.45
2024-01-17T00:34:13.808Z,99011.95
2024-01-17T00:36:46.089Z,99016.45
2024-01-17T00:39:18.347Z,99013.63
2024-01-17T00:41:50.850Z,99018.90
2024-01-17T00:44:28.333Z,99014.07
2024-01-17T00:47:01.132Z,99007.98
2024-01-17T00:49:33.906Z,99006.10
2024-01-17T00:52:06.619Z,99004.48
2024-01-17T00:54:38.884Z,99003.48
2024-01-17T00:57:11.212Z,99001.30
2024-01-17T00:59:43.375Z,98993.70
2024-01-17T01:02:15.544Z,98995.27
2024-01-17T01:04:47.944Z,98995.88
2024-01-17T01:07:20.208Z,98999.41
2024-01-17T01:09:55.845Z,99002.05
2024-01-17T01:12:29.514Z,99000.60
2024-01-17T01:15:01.999Z,98996.53
2024-01-17T01:17:34.443Z,98995.87
2024-01-17T01:20:09.122Z,98994.78
2024-01-17T01:22:41.197Z,98990.18
2024-01-17T01:25:13.428Z,98987.59
2024-01-17T01:27:45.636Z,98984.82
2024-01-17T01:30:18.292Z,98980.20
2024-01-17T01:32:50.698Z,98987.70
2024-01-17T01:35:22.882Z,98988.67
2024-01-17T01:37:55.083Z,98988.95
2024-01-17T01:40:27.345Z,98984.89
2024-01-17T01:43:01.478Z,98978.27
2024-01-17T01:45:33.661Z,98971.09
2024-01-17T01:48:06.736Z,98969.55
2024-01-17T01:50:39.038Z,98967.06
2024-01-17T01:53:11.272Z,98958.40
2024-01-17T01:55:43.505Z,98951.63
2024-01-17T01:58:17.362Z,98944.96
2024-01-17T02:00:50.467Z,98943.86
2024-01-17T02:03:23.741Z,98939.20
2024-01-17T02:05:56.559Z,98933.48
2024-01-17T02:08:29.657Z,98937.09
2024-01-17T02:11:02.323Z,98930.66
2024-01-17T02:13:34.723Z,98928.88
2024-01-17T02:16:08.185Z,98931.57
2024-01-17T02:18:41.257Z,98925.80
2024-01-17T02:21:14.878Z,98922.60
2024-01-17T02:23:52.046Z,98916.74
2024-01-17T02:26:24.321Z,98916.67
2024-01-17T02:28:56.534Z,98914.17
2024-01-17T02:31:28.801Z,98912.39
2024-01-17T02:34:01.197Z,98906.70
2024-01-17T02:36:33.819Z,98906.67
2024-01-17T02:39:06.252Z,98907.36
2024-01-17T02:41:38.644Z,98900.35
2024-01-17T02:44:10.920Z,98895.41
2024-01-17T02:46:43.175Z,98888.86
2024-01-17T02:49:20.891Z,98886.11
2024-01-17T02:51:53.365Z,98884.95
2024-01-17T02:54:25.517Z,98887.39
2024-01-17T02:56:57.985Z,98892.46
2024-01-17T02:59:30.171Z,98895.05
2024-01-17T03:02:02.419Z,98902.82
2024-01-17T03:04:34.607Z,98904.59
2024-01-17T03:07:07.020Z,98903.19
2024-01-17T03:09:41.834Z,98904.47
2024-01-17T03:12:13.990Z,98901.63
2024-01-17T03:14:46.215Z,98900.23
2024-01-17T03:17:18.450Z,98900.81
2024-01-17T03:19:50.656Z,98902.98
2024-01-17T03:22:22.793Z,98902.86
2024-01-17T03:24:54.865Z,98900.27
2024-01-17T03:27:26.992Z,98899.77
2024-01-17T03:29:59.241Z,98899.44
2024-01-17T03:32:31.600Z,98897.77
2024-01-17T03:35:03.937Z,98891.61
2024-01-17T03:37:36.114Z,98888.00
2024-01-17T03:40:09.984Z,98887.18
2024-01-17T03:42:42.188Z,98879.38
2024-01-17T03:45:15.204Z,98875.91
2024-01-17T03:47:47.520Z,98868.80
2024-01-17T03:50:19.740Z,98865.69
2024-01-17T03:52:52.115Z,98864.13
2024-01-17T03:55:24.152Z,98858.17
2024-01-17T03:57:56.722Z,98847.92
2024-01-17T04:00:29.057Z,98840.15
2024-01-17T04:03:01.270Z,98834.11
2024-01-17T04:05:33.448Z,98836.48
2024-01-17T04:08:06.112Z,98837.31
2024-01-17T04:10:38.144Z,98834.38
2024-01-17T04:13:10.258Z,98836.08
2024-01-17T04:15:44.027Z,98833.58
2024-01-17T04:18:16.745Z,98824.08
2024-01-17T04:20:49.060Z,98813.50
2024-01-17T04:23:21.236Z,98805.70
2024-01-17T04:25:53.421Z,98803.58
2024-01-17T04:28:25.598Z,98792.23
2024-01-17T04:30:57.752Z,98785.95
2024-01-17T04:33:30.138Z,98779.52
2024-01-17T04:36:02.470Z,98780.98
2024-01-17T04:38:35.005Z,98781.60
2024-01-17T04:41:07.476Z,98778.99
2024-01-17T04:43:39.639Z,98780.23
2024-01-17T04:46:13.631Z,98779.32
2024-01-17T04:48:46.973Z,98778.66
2024-01-17T04:51:20.580Z,98775.04
2024-01-17T04:53:52.872Z,98770.27
2024-01-17T04:56:25.142Z,98766.53
2024-01-17T04:58:57.771Z,98765.44
2024-01-17T05:01:29.811Z,98763.99
2024-01-17T05:04:02.036Z,98763.70
2024-01-17T05:06:35.279Z,98762.94
2024-01-17T05:09:10.381Z,98756.17
2024-01-17T05:11:42.869Z,98747.45
2024-01-17T05:14:16.966Z,98740.02
2024-01-17T05:16:49.153Z,98738.04
2024-01-17T05:19:21.542Z,98741.99
2024-01-17T05:21:53.772Z,98739.23
2024-01-17T05:24:25.933Z,98738.13
2024-01-17T05:26:58.232Z,98735.40
2024-01-17T05:29:31.775Z,98736.23
2024-01-17T05:32:03.947Z,98731.33
2024-01-17T05:34:36.037Z,98722.73
2024-01-17T05:37:11.759Z,98722.86
2024-01-17T05:39:43.848Z,98722.70
2024-01-17T05:42:16.373Z,98722.77
2024-01-17T05:44:48.608Z,98717.10
2024-01-17T05:47:20.953Z,98710.54
2024-01-17T05:49:53.212Z,98706.33
2024-01-17T05:52:25.430Z,98701.14
2024-01-17T05:54:57.450Z,98700.73
2024-01-17T05:57:29.591Z,98693.60
2024-01-17T06:00:02.164Z,98688.70
2024-01-17T06:02:36.588Z,98684.70
2024-01-17T06:05:10.126Z,98687.34
2024-01-17T06:07:44.009Z,98683.10
2024-01-17T06:10:16.288Z,98689.55
2024-01-17T06:12:48.448Z,98693.97
2024-01-17T06:15:20.766Z,98691.73
2024-01-17T06:17:53.316Z,98691.60
2024-01-17T06:20:25.438Z,98692.00
2024-01-17T06:22:57.529Z,98695.08
2024-01-17T06:25:29.870Z,98694.17
2024-01-17T06:28:02.171Z,98697.45
2024-01-17T06:30:34.406Z,98699.35
2024-01-17T06:33:07.246Z,98691.48
2024-01-17T06:35:39.611Z,98693.55
2024-01-17T06:38:11.800Z,98692.09
2024-01-17T06:40:44.104Z,98686.20
2024-01-17T06:43:16.433Z,98689.90
2024-01-17T06:45:48.510Z,98686.68
2024-01-17T06:48:21.276Z,98685.56
2024-01-17T06:50:53.583Z,98686.67
2024-01-17T06:53:25.939Z,98685.27
2024-01-17T06:55:58.187Z,98678.73
2024-01-17T06:58:30.389Z,98674.45
2024-01-17T07:01:03.610Z,98671.30
2024-01-17T07:03:35.867Z,98668.30
2024-01-17T07:06:09.847Z,98663.10
2024-01-17T07:08:42.785Z,98659.13
2024-01-17T07:11:15.820Z,98651.03
2024-01-17T07:13:48.223Z,98646.98
2024-01-17T07:16:20.426Z,98646.45
2024-01-17T07:18:54.789Z,98642.50
2024-01-17T07:21:27.208Z,98630.73
2024-01-17T07:23:59.677Z,98620.69
2024-01-17T07:26:31.986Z,98618.45
2024-01-17T07:29:04.120Z,98613.14
2024-01-17T07:31:36.216Z,98615.25
2024-01-17T07:34:08.452Z,98613.18
2024-01-17T07:36:41.046Z,98607.42
2024-01-17T07:39:15.694Z,98605.31
2024-01-17T07:41:49.277Z,98597.56
2024-01-17T07:44:22.392Z,98593.29
2024-01-17T07:46:54.931Z,98591.08
2024-01-17T07:49:27.158Z,98587.67
2024-01-17T07:51:59.396Z,98584.67
2024-01-17T07:54:31.682Z,98583.84
2024-01-17T07:57:03.833Z,98578.89
2024-01-17T07:59:36.093Z,98566.91
2024-01-17T08:02:08.319Z,98562.66
2024-01-17T08:04:40.450Z,98549.42
2024-01-17T08:07:14.064Z,98546.52
2024-01-17T08:09:46.162Z,98539.08
2024-01-17T08:12:18.338Z,98533.92
2024-01-17T08:14:50.783Z,98525.00
2024-01-17T08:17:22.953Z,98519.94
2024-01-17T08:19:55.247Z,98515.03
2024-01-17T08:22:27.802Z,98513.02
2024-01-17T08:25:00.104Z,98512.58
2024-01-17T08:27:32.559Z,98510.11
2024-01-17T08:30:06.073Z,98504.93
2024-01-17T08:32:39.165Z,98504.46
2024-01-17T08:35:13.414Z,98509.70
2024-01-17T08:37:45.649Z,98506.83
2024-01-17T08:40:18.534Z,98503.21
2024-01-17T08:42:50.678Z,98502.63
2024-01-17T08:45:23.693Z,98489.51
2024-01-17T08:47:56.027Z,98485.40
2024-01-17T08:50:28.125Z,98485.65
2024-01-17T08:53:00.325Z,98484.20
2024-01-17T08:55:33.068Z,98477.98
2024-01-17T08:58:05.404Z,98471.67
2024-01-17T09:00:37.826Z,98470.02
2024-01-17T09:03:11.037Z,98460.55
2024-01-17T09:05:43.264Z,98453.92
2024-01-17T09:08:16.321Z,98450.29
2024-01-17T09:10:48.609Z,98444.05
2024-01-17T09:13:20.701Z,98439.84
2024-01-17T09:15:52.940Z,98431.33
2024-01-17T09:18:25.300Z,98430.70
2024-01-17T09:20:57.724Z,98416.45
2024-01-17T09:23:29.980Z,98417.96
2024-01-17T09:26:04.409Z,98411.88
2024-01-17T09:28:38.389Z,98404.70
2024-01-17T09:31:10.584Z,98398.20
2024-01-17T09:33:43.417Z,98392.22
2024-01-17T09:36:15.701Z,98385.53
2024-01-17T09:38:47.957Z,98374.98
2024-01-17T09:41:20.116Z,98375.14
2024-01-17T09:43:52.521Z,98370.65
2024-01-17T09:46:24.723Z,98368.75
2024-01-17T09:48:58.130Z,98360.08
2024-01-17T09:51:34.866Z,98351.19
2024-01-17T09:54:08.299Z,98348.05
2024-01-17T09:56:44.409Z,98345.17
2024-01-17T09:59:18.965Z,98337.16
2024-01-17T10:01:51.523Z,98330.05
2024-01-17T10:04:26.057Z,98322.39
2024-01-17T10:06:59.491Z,98313.88
2024-01-17T10:09:32.723Z,98316.58
2024-01-17T10:12:05.849Z,98313.73
2024-01-17T10:14:38.739Z,98312.45
2024-01-17T10:17:12.055Z,98305.55
2024-01-17T10:19:45.242Z,98295.28
2024-01-17T10:22:20.820Z,98290.33
2024-01-17T10:24:55.277Z,98280.30
2024-01-17T10:27:29.349Z,98268.08
2024-01-17T10:30:01.545Z,98264.89
2024-01-17T10:32:33.908Z,98256.52
2024-01-17T10:35:11.725Z,98253.04
2024-01-17T10:37:43.979Z,98249.27
2024-01-17T10:40:16.558Z,98242.74
2024-01-17T10:42:49.106Z,98239.13
2024-01-17T10:45:24.966Z,98237.68
2024-01-17T10:47:58.534Z,98230.39
2024-01-17T10:50:31.808Z,98223.04
2024-01-17T10:53:07.472Z,98211.67
2024-01-17T10:55:40.906Z,98204.72
2024-01-17T10:58:15.907Z,98196.02
2024-01-17T11:00:50.208Z,98190.36
2024-01-17T11:03:25.156Z,98177.77
2024-01-17T11:05:59.248Z,98172.58
2024-01-17T11:08:32.995Z,98165.16
2024-01-17T11:11:06.536Z,98162.13
2024-01-17T11:13:40.226Z,98157.89
2024-01-17T11:16:14.482Z,98155.88
2024-01-17T11:18:48.507Z,98147.83
2024-01-17T11:21:23.515Z,98139.98
2024-01-17T11:24:05.067Z,98134.94
2024-01-17T11:26:43.914Z,98122.86
2024-01-17T11:29:27.652Z,98120.53
2024-01-17T11:32:10.607Z,98111.95
2024-01-17T11:34:43.373Z,98107.41
2024-01-17T11:37:32.750Z,98103.42
2024-01-17T11:40:07.000Z,98096.50
2024-01-17T11:42:39.987Z,98092.45
2024-01-17T11:45:14.566Z,98091.50
2024-01-17T11:47:57.589Z,98089.95
2024-01-17T11:50:30.260Z,98081.47
2024-01-17T11:53:04.166Z,98074.84
2024-01-17T11:55:49.749Z,98064.12
2024-01-17T11:58:22.540Z,98056.98
2024-01-17T12:00:56.935Z,98046.27
2024-01-17T12:03:35.568Z,98039.27
2024-01-17T12:06:10.222Z,98036.40
2024-01-17T12:08:43.292Z,98033.70
2024-01-17T12:11:17.057Z,98032.48
2024-01-17T12:13:54.554Z,98027.95
2024-01-17T12:16:27.342Z,98022.73
2024-01-17T12:19:04.676Z,98016.01
2024-01-17T12:21:38.125Z,98012.18
2024-01-17T12:24:14.201Z,98006.66
2024-01-17T12:26:48.428Z,97995.41
2024-01-17T12:29:22.898Z,97988.11
2024-01-17T12:31:55.036Z,97977.43
2024-01-17T12:34:27.249Z,97968.84
2024-01-17T12:36:59.839Z,97963.04
2024-01-17T12:39:36.203Z,97960.74
2024-01-17T12:42:09.098Z,97953.30
2024-01-17T12:44:41.798Z,97942.98
2024-01-17T12:47:14.503Z,97939.84
2024-01-17T12:49:48.563Z,97933.35
2024-01-17T12:52:21.848Z,97924.90
2024-01-17T12:54:53.992Z,97922.52
2024-01-17T12:57:26.242Z,97927.00
2024-01-17T12:59:58.603Z,97922.24
2024-01-17T13:02:30.879Z,97918.27
2024-01-17T13:05:14.422Z,97914.42
2024-01-17T13:07:47.784Z,97906.64
2024-01-17T13:10:22.676Z,97897.55
2024-01-17T13:12:57.849Z,97889.66
2024-01-17T13:15:30.091Z,97889.14
2024-01-17T13:18:02.387Z,97878.50
2024-01-17T13:20:36.566Z,97874.75
2024-01-17T13:23:09.591Z,97873.40
2024-01-17T13:25:42.075Z,97874.47
2024-01-17T13:28:15.125Z,97874.29
2024-01-17T13:30:47.287Z,97872.84
2024-01-17T13:33:19.786Z,97862.94
2024-01-17T13:35:54.938Z,97860.98
2024-01-17T13:38:28.144Z,97856.13
2024-01-17T13:41:02.133Z,97852.70
2024-01-17T13:43:34.316Z,97844.66
2024-01-17T13:46:06.808Z,97846.08
2024-01-17T13:48:40.364Z,97843.34
2024-01-17T13:51:14.019Z,97840.55
2024-01-17T13:53:54.483Z,97834.20
2024-01-17T13:56:27.080Z,97830.44
2024-01-17T13:58:59.300Z,97824.63
2024-01-17T14:01:31.515Z,97821.66
2024-01-17T14:04:05.118Z,97821.96
2024-01-17T14:06:37.862Z,97815.09
2024-01-17T14:09:10.752Z,97807.56
2024-01-17T14:11:44.498Z,97797.86
2024-01-17T14:14:17.803Z,97793.11
2024-01-17T14:16:50.193Z,97787.24
2024-01-17T14:19:22.370Z,97781.80
2024-01-17T14:21:54.656Z,97773.50
2024-01-17T14:24:27.048Z,97765.85
2024-01-17T14:26:59.542Z,97762.79
2024-01-17T14:29:31.622Z,97763.74
2024-01-17T14:32:04.156Z,97768.39
2024-01-17T14:34:36.336Z,97769.73
2024-01-17T14:37:08.706Z,97772.77
2024-01-17T14:39:41.651Z,97775.05
2024-01-17T14:42:14.241Z,97771.45
2024-01-17T14:44:46.450Z,97768.36
2024-01-17T14:47:18.851Z,97766.02
2024-01-17T14:49:51.212Z,97765.64
2024-01-17T14:52:23.696Z,97764.19
2024-01-17T14:54:55.770Z,97763.34
2024-01-17T14:57:28.036Z,97752.77
2024-01-17T15:00:00.315Z,97745.29
2024-01-17T15:02:32.725Z,97741.55
2024-01-17T15:05:06.614Z,97736.70
2024-01-17T15:07:40.307Z,97731.95
2024-01-17T15:10:14.298Z,97724.58
2024-01-17T15:12:46.624Z,97720.38
2024-01-17T15:15:19.027Z,97714.66
2024-01-17T15:17:51.306Z,97711.60
2024-01-17T15:20:23.455Z,97705.96
2024-01-17T15:22:55.672Z,97707.13
2024-01-17T15:25:28.186Z,97700.83
2024-01-17T15:28:00.415Z,97699.98
2024-01-17T15:30:33.057Z,97694.37
2024-01-17T15:33:05.844Z,97694.48
2024-01-17T15:35:38.244Z,97686.66
2024-01-17T15:38:10.384Z,97679.70
2024-01-17T15:40:56.790Z,97679.02
2024-01-17T15:43:29.835Z,97684.76
2024-01-17T15:46:03.394Z,97681.02
2024-01-17T15:48:36.801Z,97674.42
2024-01-17T15:51:09.812Z,97669.73
2024-01-17T15:53:43.334Z,97661.62
2024-01-17T15:56:15.604Z,97661.48
2024-01-17T15:58:48.700Z,97666.66
2024-01-17T16:01:21.083Z,97664.05
2024-01-17T16:03:53.746Z,97663.20
2024-01-17T16:06:25.980Z,97662.52
2024-01-17T16:08:58.188Z,97659.20
2024-01-17T16:11:30.687Z,97660.23
2024-01-17T16:14:03.811Z,97654.09
2024-01-17T16:16:36.048Z,97652.06
2024-01-17T16:19:08.297Z,97651.33
2024-01-17T16:21:40.752Z,97648.77
2024-01-17T16:24:13.046Z,97649.58
2024-01-17T16:26:47.631Z,97643.09
2024-01-17T16:29:19.784Z,97643.94
2024-01-17T16:31:51.954Z,97639.98
2024-01-17T16:34:24.216Z,97635.68
2024-01-17T16:36:56.481Z,97632.55
2024-01-17T16:39:28.748Z,97625.64
2024-01-17T16:42:01.060Z,97623.73
2024-01-17T16:44:33.437Z,97618.44
2024-01-17T16:47:06.114Z,97616.19
2024-01-17T16:49:38.351Z,97607.80
2024-01-17T16:52:10.831Z,97600.43
2024-01-17T16:54:43.628Z,97595.10
2024-01-17T16:57:15.826Z,97592.24
2024-01-17T16:59:49.630Z,97593.15
2024-01-17T17:02:23.873Z,97596.23
2024-01-17T17:04:56.323Z,97593.02
2024-01-17T17:07:29.845Z,97588.77
2024-01-17T17:10:02.664Z,97585.41
2024-01-17T17:12:35.059Z,97579.65
2024-01-17T17:15:09.579Z,97572.86
2024-01-17T17:17:57.805Z,97575.23
2024-01-17T17:20:31.313Z,97570.41
2024-01-17T17:23:03.910Z,97566.77
2024-01-17T17:25:36.214Z,97566.19
2024-01-17T17:28:10.347Z,97561.70
2024-01-17T17:30:42.873Z,97560.41
2024-01-17T17:33:15.439Z,97553.05
2024-01-17T17:35:49.109Z,97550.44
2024-01-17T17:38:21.616Z,97543.05
2024-01-17T17:40:54.395Z,97540.95
2024-01-17T17:43:26.537Z,97538.46
2024-01-17T17:45:58.848Z,97533.77
2024-01-17T17:48:31.225Z,97533.64
2024-01-17T17:51:04.719Z,97534.81
2024-01-17T17:53:37.135Z,97530.23
2024-01-17T17:56:09.789Z,97519.54
2024-01-17T17:58:42.165Z,97517.14
2024-01-17T18:01:14.523Z,97507.28
2024-01-17T18:03:47.113Z,97493.38
2024-01-17T18:06:21.487Z,97483.71
2024-01-17T18:08:56.073Z,97473.40
2024-01-17T18:11:28.718Z,97461.73
2024-01-17T18:14:01.013Z,97459.20
2024-01-17T18:16:35.450Z,97456.17
2024-01-17T18:19:08.536Z,97447.65
2024-01-17T18:21:41.609Z,97435.09
2024-01-17T18:24:13.782Z,97423.92
2024-01-17T18:26:46.576Z,97413.23
2024-01-17T18:29:19.885Z,97410.86
2024-01-17T18:31:54.017Z,97407.40
2024-01-17T18:34:29.663Z,97400.77
2024-01-17T18:37:02.009Z,97396.67
2024-01-17T18:39:34.474Z,97397.69
2024-01-17T18:42:07.105Z,97406.20
2024-01-17T18:44:39.372Z,97400.09
2024-01-17T18:47:12.015Z,97390.04
2024-01-17T18:49:45.716Z,97391.58
2024-01-17T18:52:18.965Z,97396.02
2024-01-17T18:54:51.733Z,97394.89
2024-01-17T18:57:24.823Z,97377.14
2024-01-17T18:59:57.928Z,97370.05
2024-01-17T19:02:30.552Z,97380.23
2024-01-17T19:05:02.955Z,97387.88
2024-01-17T19:07:38.745Z,97378.33
2024-01-17T19:10:11.358Z,97372.02
2024-01-17T19:12:46.659Z,97362.13
2024-01-17T19:15:21.608Z,97365.80
2024-01-17T19:17:57.599Z,97358.66
2024-01-17T19:20:31.007Z,97344.73
2024-01-17T19:23:04.126Z,97335.36
2024-01-17T19:25:36.768Z,97328.30
2024-01-17T19:28:10.292Z,97334.07
2024-01-17T19:30:43.509Z,97324.63
2024-01-17T19:33:16.257Z,97304.77
2024-01-17T19:35:48.843Z,97299.96
2024-01-17T19:38:21.548Z,97288.73
2024-01-17T19:40:54.611Z,97293.79
2024-01-17T19:43:26.779Z,97290.90
2024-01-17T19:46:01.357Z,97274.62
2024-01-17T19:48:33.800Z,97268.68
2024-01-17T19:51:09.417Z,97245.48
2024-01-17T19:53:41.728Z,97251.83
2024-01-17T19:56:15.462Z,97245.60
2024-01-17T19:58:49.619Z,97240.04
2024-01-17T20:01:23.363Z,97252.33
2024-01-17T20:04:01.535Z,97264.60
2024-01-17T20:06:35.967Z,97269.41
2024-01-17T20:09:08.678Z,97275.20
2024-01-17T20:11:48.774Z,97253.02
2024-01-17T20:14:21.611Z,97230.48
2024-01-17T20:16:54.192Z,97218.33
2024-01-17T20:19:30.544Z,97221.25
2024-01-17T20:22:03.374Z,97216.67
2024-01-17T20:24:35.752Z,97208.20
2024-01-17T20:27:08.657Z,97193.27
2024-01-17T20:29:41.362Z,97188.52
2024-01-17T20:32:14.349Z,97190.21
2024-01-17T20:34:47.522Z,97187.30
2024-01-17T20:37:22.239Z,97190.02
2024-01-17T20:39:56.085Z,97182.06
2024-01-17T20:42:29.726Z,97181.23
2024-01-17T20:45:03.784Z,97177.03
2024-01-17T20:47:36.572Z,97168.52
2024-01-17T20:50:11.903Z,97164.13
2024-01-17T20:52:44.424Z,97152.95
2024-01-17T20:55:18.840Z,97142.25
2024-01-17T20:57:51.243Z,97135.84
2024-01-17T21:00:25.050Z,97139.12
2024-01-17T21:03:00.370Z,97136.79
2024-01-17T21:05:35.676Z,97125.28
2024-01-17T21:08:10.896Z,97127.38
2024-01-17T21:10:44.669Z,97119.73
2024-01-17T21:13:19.390Z,97103.59
2024-01-17T21:15:52.616Z,97112.80
2024-01-17T21:18:26.801Z,97109.91
2024-01-17T21:20:59.514Z,97107.20
2024-01-17T21:23:32.267Z,97111.80
2024-01-17T21:26:05.365Z,97102.11
2024-01-17T21:28:37.625Z,97087.33
2024-01-17T21:31:10.276Z,97071.67
2024-01-17T21:33:42.381Z,97066.23
2024-01-17T21:36:25.407Z,97064.02
2024-01-17T21:39:01.953Z,97053.98
2024-01-17T21:41:34.649Z,97045.13
2024-01-17T21:44:09.479Z,97043.94
2024-01-17T21:46:42.934Z,97046.99
2024-01-17T21:52:04.440Z,97064.35
2024-01-17T21:54:37.146Z,97063.34
2024-01-17T21:57:10.541Z,97054.48
2024-01-17T21:59:43.144Z,97035.78
2024-01-17T22:02:15.329Z,97052.29
2024-01-17T22:04:47.903Z,97057.05
2024-01-17T22:07:20.423Z,97065.55
2024-01-17T22:09:54.822Z,97056.70
2024-01-17T22:12:31.396Z,97052.28
2024-01-17T22:15:06.912Z,97049.89
2024-01-17T22:17:39.216Z,97042.59
2024-01-17T22:20:13.912Z,97028.97
2024-01-17T22:22:46.139Z,97014.67
2024-01-17T22:25:18.465Z,97016.71
2024-01-17T22:27:50.643Z,97009.91
2024-01-17T22:30:22.908Z,97014.67
2024-01-17T22:32:55.280Z,97015.20
2024-01-17T22:35:28.297Z,97018.94
2024-01-17T22:38:00.955Z,97014.36
2024-01-17T22:40:33.130Z,97019.12
2024-01-17T22:43:05.640Z,97011.80
2024-01-17T22:45:37.816Z,96998.20
2024-01-17T22:48:10.453Z,96999.55
2024-01-17T22:50:42.697Z,97003.13
2024-01-17T22:53:15.026Z,96999.40
2024-01-17T22:55:47.442Z,96991.21
2024-01-17T22:58:19.476Z,96999.05
2024-01-17T23:00:51.669Z,97009.27
2024-01-17T23:03:24.039Z,97015.39
2024-01-17T23:05:56.326Z,97019.48
2024-01-17T23:08:28.454Z,97015.39
2024-01-17T23:11:11.516Z,97002.11
2024-01-17T23:13:52.333Z,96987.13
2024-01-17T23:16:24.584Z,96975.55
2024-01-17T23:18:56.936Z,96958.88
2024-01-17T23:21:29.349Z,96966.36
2024-01-17T23:24:01.846Z,96955.64
2024-01-17T23:26:34.076Z,96960.08
2024-01-17T23:29:06.263Z,96951.73
2024-01-17T23:31:38.356Z,96958.55
2024-01-17T23:34:10.673Z,96965.70
2024-01-17T23:36:42.888Z,96968.41
2024-01-17T23:39:15.136Z,96966.36
2024-01-17T23:41:47.432Z,96966.36
2024-01-17T23:44:19.544Z,96952.05
2024-01-17T23:46:51.573Z,96960.39
2024-01-17T23:49:23.851Z,96968.56
2024-01-17T23:51:55.901Z,96966.85
2024-01-17T23:54:27.965Z,96972.64
2024-01-17T23:57:00.275Z,96984.71
2024-01-17T23:59:32.450Z,96991.00
